createdAt,value
2019-05-17T00:00:47.456Z,70.85
2019-05-17T00:03:18.671Z,70.71
2019-05-17T00:05:48.048Z,71.33
2019-05-17T00:08:30.837Z,71.70
2019-05-17T00:10:48.337Z,69.92
2019-05-17T00:13:17.609Z,70.70
2019-05-17T00:15:47.447Z,71.25
2019-05-17T00:18:17.276Z,70.81
2019-05-17T00:20:47.657Z,71.89
2019-05-17T00:23:17.489Z,71.89
2019-05-17T00:25:48.425Z,71.98
2019-05-17T00:28:17.697Z,71.50
2019-05-17T00:30:47.080Z,72.29
2019-05-17T00:33:16.983Z,72.24
2019-05-17T00:35:46.996Z,72.23
2019-05-17T00:38:16.990Z,72.54
2019-05-17T00:40:47.049Z,72.21
2019-05-17T00:43:17.010Z,72.40
2019-05-17T00:45:46.924Z,72.84
2019-05-17T00:48:17.387Z,72.47
2019-05-17T00:50:53.340Z,72.71
2019-05-17T00:53:17.700Z,72.77
2019-05-17T00:55:48.518Z,72.18
2019-05-17T00:58:17.790Z,72.25
2019-05-17T01:00:47.944Z,72.11
2019-05-17T01:03:17.404Z,72.28
2019-05-17T01:05:47.361Z,72.93
2019-05-17T01:08:17.433Z,73.07
2019-05-17T01:10:47.375Z,73.60
2019-05-17T01:13:17.477Z,73.82
2019-05-17T01:15:47.541Z,74.10
2019-05-17T01:18:16.868Z,74.34
2019-05-17T01:20:47.424Z,74.72
2019-05-17T01:23:17.987Z,75.15
2019-05-17T01:25:48.156Z,74.81
2019-05-17T01:28:17.579Z,74.75
2019-05-17T01:30:46.851Z,74.93
2019-05-17T01:33:17.343Z,75.53
2019-05-17T01:35:46.779Z,75.07
2019-05-17T01:38:17.770Z,75.49
2019-05-17T01:40:47.272Z,75.53
2019-05-17T01:43:16.767Z,75.37
2019-05-17T01:45:48.001Z,76.63
2019-05-17T01:48:17.100Z,76.03
2019-05-17T01:50:46.582Z,76.04
2019-05-17T01:53:16.622Z,76.13
2019-05-17T01:55:46.667Z,75.97
2019-05-17T01:58:17.271Z,76.50
2019-05-17T02:00:46.691Z,76.39
2019-05-17T02:03:17.383Z,76.83
2019-05-17T02:05:47.352Z,76.81
2019-05-17T02:08:17.159Z,76.80
2019-05-17T02:10:47.673Z,77.16
2019-05-17T02:13:16.995Z,76.68
2019-05-17T02:15:46.973Z,76.63
2019-05-17T02:18:17.357Z,77.03
2019-05-17T02:20:46.806Z,76.85
2019-05-17T02:23:17.429Z,76.94
2019-05-17T02:25:47.933Z,77.26
2019-05-17T02:28:17.215Z,77.32
2019-05-17T02:30:46.601Z,77.89
2019-05-17T02:33:15.871Z,78.21
2019-05-17T02:35:45.259Z,77.69
2019-05-17T02:38:14.548Z,78.20
2019-05-17T02:40:43.848Z,77.43
2019-05-17T02:43:13.445Z,77.29
2019-05-17T02:45:43.581Z,77.66
2019-05-17T02:48:13.558Z,77.36
2019-05-17T02:50:47.780Z,77.70
2019-05-17T02:53:15.323Z,77.45
2019-05-17T02:55:44.615Z,77.66
2019-05-17T02:58:13.939Z,77.86
2019-05-17T03:00:44.789Z,77.56
2019-05-17T03:03:14.087Z,78.12
2019-05-17T03:05:43.693Z,77.77
2019-05-17T03:08:12.987Z,77.44
2019-05-17T03:10:43.226Z,77.55
2019-05-17T03:13:15.355Z,77.66
2019-05-17T03:15:43.737Z,77.42
2019-05-17T03:18:13.600Z,77.96
2019-05-17T03:20:43.420Z,77.80
2019-05-17T03:23:12.915Z,78.19
2019-05-17T03:25:44.081Z,78.65
2019-05-17T03:28:13.577Z,78.91
2019-05-17T03:30:46.786Z,78.48
2019-05-17T03:33:16.431Z,78.00
2019-05-17T03:35:47.858Z,77.50
2019-05-17T03:38:17.151Z,78.13
2019-05-17T03:41:07.473Z,78.26
2019-05-17T03:43:17.494Z,78.26
2019-05-17T03:45:46.925Z,78.64
2019-05-17T03:48:16.324Z,78.23
2019-05-17T03:50:45.604Z,78.07
2019-05-17T03:53:14.918Z,78.16
2019-05-17T03:55:44.192Z,78.30
2019-05-17T03:58:13.557Z,78.48
2019-05-17T04:00:43.047Z,78.40
2019-05-17T04:03:13.565Z,78.52
2019-05-17T04:05:43.296Z,78.53
2019-05-17T04:08:13.943Z,78.51
2019-05-17T04:10:43.606Z,79.42
2019-05-17T04:13:13.205Z,78.79
2019-05-17T04:15:43.354Z,78.74
2019-05-17T04:18:13.342Z,78.54
2019-05-17T04:20:43.778Z,78.95
2019-05-17T04:23:13.211Z,78.12
2019-05-17T04:25:43.506Z,78.46
2019-05-17T04:28:13.819Z,78.63
2019-05-17T04:30:43.590Z,78.25
2019-05-17T04:33:13.090Z,78.45
2019-05-17T04:35:43.244Z,78.46
2019-05-17T04:38:12.997Z,77.72
2019-05-17T04:40:43.144Z,77.78
2019-05-17T04:43:13.550Z,77.73
2019-05-17T04:45:43.297Z,77.59
2019-05-17T04:48:13.373Z,76.45
2019-05-17T04:50:43.096Z,76.70
2019-05-17T04:53:13.389Z,77.21
2019-05-17T04:55:43.345Z,76.85
2019-05-17T04:58:13.680Z,77.01
2019-05-17T05:00:43.272Z,77.72
2019-05-17T05:03:12.899Z,78.02
2019-05-17T05:05:42.930Z,77.67
2019-05-17T05:08:12.982Z,77.50
2019-05-17T05:10:44.189Z,77.72
2019-05-17T05:13:13.578Z,77.12
2019-05-17T05:15:44.593Z,76.90
2019-05-17T05:18:14.258Z,76.22
2019-05-17T05:20:44.069Z,76.59
2019-05-17T05:23:13.654Z,76.57
2019-05-17T05:25:43.456Z,76.37
2019-05-17T05:28:12.938Z,76.72
2019-05-17T05:30:43.728Z,76.23
2019-05-17T05:33:13.258Z,76.00
2019-05-17T05:35:42.903Z,75.64
2019-05-17T05:38:13.275Z,75.16
2019-05-17T05:40:43.829Z,75.39
2019-05-17T05:43:13.777Z,75.82
2019-05-17T05:45:43.077Z,75.04
2019-05-17T05:48:13.272Z,74.57
2019-05-17T05:50:43.952Z,74.25
2019-05-17T05:53:13.422Z,74.08
2019-05-17T05:55:43.319Z,74.23
2019-05-17T05:58:12.986Z,74.14
2019-05-17T06:00:42.942Z,74.81
2019-05-17T06:03:12.542Z,73.66
2019-05-17T06:05:42.562Z,73.77
2019-05-17T06:08:13.195Z,73.89
2019-05-17T06:10:43.026Z,72.28
2019-05-17T06:13:13.461Z,73.73
2019-05-17T06:15:43.198Z,73.42
2019-05-17T06:18:12.765Z,72.23
2019-05-17T06:20:42.224Z,73.11
2019-05-17T06:23:12.179Z,72.89
2019-05-17T06:25:43.449Z,72.29
2019-05-17T06:28:12.848Z,71.42
2019-05-17T06:30:43.114Z,71.22
2019-05-17T06:33:26.653Z,71.77
2019-05-17T06:35:43.614Z,71.53
2019-05-17T06:38:13.189Z,70.61
2019-05-17T06:40:42.461Z,71.28
2019-05-17T06:43:13.145Z,71.39
2019-05-17T06:45:42.654Z,71.66
2019-05-17T06:48:12.091Z,70.97
2019-05-17T06:50:42.824Z,71.08
2019-05-17T06:53:12.767Z,70.30
2019-05-17T06:55:42.611Z,69.64
2019-05-17T06:58:12.409Z,69.67
2019-05-17T07:00:41.858Z,68.63
2019-05-17T07:03:12.694Z,68.45
2019-05-17T07:05:46.347Z,68.00
2019-05-17T07:08:15.678Z,66.15
2019-05-17T07:10:44.966Z,67.94
2019-05-17T07:13:14.375Z,67.32
2019-05-17T07:15:47.814Z,67.59
2019-05-17T07:18:14.663Z,65.68
2019-05-17T07:20:43.953Z,67.08
2019-05-17T07:23:13.248Z,66.84
2019-05-17T07:25:42.557Z,67.53
2019-05-17T07:28:11.867Z,67.02
2019-05-17T07:30:41.193Z,66.98
2019-05-17T07:33:10.544Z,66.27
2019-05-17T07:35:40.069Z,66.80
2019-05-17T07:38:10.614Z,67.61
2019-05-17T07:40:40.250Z,67.19
2019-05-17T07:43:14.372Z,67.23
2019-05-17T07:45:41.129Z,67.15
2019-05-17T07:48:10.518Z,67.28
2019-05-17T07:50:40.116Z,65.61
2019-05-17T07:53:10.383Z,64.06
2019-05-17T07:55:40.187Z,65.01
2019-05-17T07:58:10.220Z,64.76
2019-05-17T08:00:40.318Z,65.07
2019-05-17T08:03:12.995Z,63.50
2019-05-17T08:05:40.827Z,64.30
2019-05-17T08:08:10.427Z,64.86
2019-05-17T08:10:41.289Z,64.02
2019-05-17T08:13:25.156Z,62.77
2019-05-17T08:15:41.698Z,62.60
2019-05-17T08:18:11.224Z,62.05
2019-05-17T08:20:40.675Z,62.38
2019-05-17T08:23:11.531Z,63.64
2019-05-17T08:25:52.143Z,61.60
2019-05-17T08:28:11.941Z,62.21
2019-05-17T08:30:41.475Z,61.86
2019-05-17T08:33:11.788Z,61.84
2019-05-17T08:35:41.116Z,62.91
2019-05-17T08:38:10.750Z,61.27
2019-05-17T08:40:40.727Z,61.82
2019-05-17T08:43:11.238Z,61.44
2019-05-17T08:45:41.049Z,60.67
2019-05-17T08:48:10.409Z,61.08
2019-05-17T08:50:40.538Z,62.16
2019-05-17T08:53:10.848Z,60.47
2019-05-17T08:55:41.246Z,61.44
2019-05-17T08:58:10.764Z,61.80
2019-05-17T09:00:41.159Z,61.51
2019-05-17T09:03:11.528Z,62.68
2019-05-17T09:05:41.770Z,63.00
2019-05-17T09:08:12.415Z,62.33
2019-05-17T09:10:41.841Z,61.64
2019-05-17T09:13:14.543Z,63.56
2019-05-17T09:15:42.946Z,62.55
2019-05-17T09:18:12.323Z,62.59
2019-05-17T09:20:41.613Z,62.06
2019-05-17T09:23:12.002Z,62.17
2019-05-17T09:25:41.307Z,62.39
2019-05-17T09:28:11.378Z,62.07
2019-05-17T09:30:40.855Z,61.62
2019-05-17T09:33:11.285Z,61.99
2019-05-17T09:35:41.200Z,60.62
2019-05-17T09:38:11.026Z,60.71
2019-05-17T09:40:40.545Z,60.93
2019-05-17T09:43:10.515Z,61.00
2019-05-17T09:45:40.736Z,60.39
2019-05-17T09:48:10.693Z,60.60
2019-05-17T09:50:40.280Z,60.35
2019-05-17T09:53:10.749Z,60.68
2019-05-17T09:55:40.533Z,61.45
2019-05-17T09:58:10.904Z,60.32
2019-05-17T10:00:40.235Z,60.31
2019-05-17T10:03:09.967Z,60.80
2019-05-17T10:05:40.569Z,60.22
2019-05-17T10:08:11.036Z,58.24
2019-05-17T10:10:40.559Z,58.01
2019-05-17T10:13:10.999Z,58.28
2019-05-17T10:15:41.007Z,57.82
2019-05-17T10:18:11.568Z,58.16
2019-05-17T10:20:40.876Z,58.44
2019-05-17T10:23:11.227Z,58.44
2019-05-17T10:25:40.585Z,57.93
2019-05-17T10:28:10.266Z,55.66
2019-05-17T10:30:40.119Z,56.08
2019-05-17T10:33:10.162Z,56.45
2019-05-17T10:35:40.573Z,55.96
2019-05-17T10:38:10.633Z,56.18
2019-05-17T10:40:41.145Z,58.72
2019-05-17T10:43:10.612Z,58.06
2019-05-17T10:45:40.401Z,58.23
2019-05-17T10:48:10.488Z,58.05
2019-05-17T10:50:40.724Z,56.86
2019-05-17T10:53:10.473Z,57.18
2019-05-17T10:55:40.250Z,58.00
2019-05-17T10:58:10.172Z,58.18
2019-05-17T11:00:41.474Z,56.39
2019-05-17T11:03:11.271Z,57.36
2019-05-17T11:05:40.602Z,57.69
2019-05-17T11:08:10.795Z,57.49
2019-05-17T11:10:40.315Z,57.36
2019-05-17T11:13:11.168Z,56.45
2019-05-17T11:15:41.541Z,56.67
2019-05-17T11:18:10.948Z,56.44
2019-05-17T11:20:40.254Z,56.51
2019-05-17T11:23:09.550Z,55.75
2019-05-17T11:25:44.922Z,55.73
2019-05-17T11:28:09.881Z,55.91
2019-05-17T11:30:39.195Z,57.61
2019-05-17T11:33:08.572Z,57.46
2019-05-17T11:35:37.889Z,57.05
2019-05-17T11:38:07.182Z,57.60
2019-05-17T11:40:36.628Z,58.33
2019-05-17T11:43:05.925Z,58.73
2019-05-17T11:45:35.248Z,58.33
2019-05-17T11:48:04.529Z,57.87
2019-05-17T11:50:33.826Z,59.87
2019-05-17T11:53:03.122Z,59.14
2019-05-17T11:55:32.441Z,57.15
2019-05-17T11:58:01.726Z,57.81
2019-05-17T12:00:31.541Z,57.67
2019-05-17T12:03:00.911Z,58.60
2019-05-17T12:05:30.409Z,57.61
2019-05-17T12:08:00.874Z,58.51
2019-05-17T12:10:31.475Z,58.27
2019-05-17T12:13:00.891Z,58.67
2019-05-17T12:15:44.492Z,58.48
2019-05-17T12:18:02.252Z,57.32
2019-05-17T12:20:31.576Z,59.56
2019-05-17T12:23:00.863Z,58.28
2019-05-17T12:25:30.170Z,59.16
2019-05-17T12:27:59.469Z,59.10
2019-05-17T12:30:28.875Z,59.44
2019-05-17T12:32:58.171Z,59.92
2019-05-17T12:35:27.489Z,59.97
2019-05-17T12:37:56.772Z,59.44
2019-05-17T12:40:27.649Z,59.81
2019-05-17T12:42:56.963Z,58.91
2019-05-17T12:45:26.284Z,59.64
2019-05-17T12:47:55.633Z,58.96
2019-05-17T12:50:24.935Z,57.95
2019-05-17T12:52:54.239Z,58.35
2019-05-17T12:55:23.559Z,57.45
2019-05-17T12:57:52.948Z,57.36
2019-05-17T13:00:22.792Z,57.18
2019-05-17T13:02:52.109Z,55.69
2019-05-17T13:05:22.156Z,56.76
2019-05-17T13:07:51.455Z,56.72
2019-05-17T13:10:20.838Z,57.06
2019-05-17T13:12:50.116Z,58.51
2019-05-17T13:15:19.504Z,57.77
2019-05-17T13:17:49.018Z,57.75
2019-05-17T13:20:18.515Z,59.13
2019-05-17T13:22:48.560Z,58.13
2019-05-17T13:25:18.014Z,59.37
2019-05-17T13:27:47.335Z,59.86
2019-05-17T13:30:17.086Z,59.94
2019-05-17T13:32:46.391Z,59.81
2019-05-17T13:35:16.913Z,58.95
2019-05-17T13:37:46.312Z,59.65
2019-05-17T13:40:15.888Z,58.96
2019-05-17T13:42:45.224Z,58.80
2019-05-17T13:45:14.879Z,56.43
2019-05-17T13:47:44.258Z,56.79
2019-05-17T13:50:14.869Z,57.05
2019-05-17T13:52:44.202Z,55.96
2019-05-17T13:55:14.814Z,57.43
2019-05-17T13:57:44.128Z,56.50
2019-05-17T14:00:13.759Z,57.97
2019-05-17T14:02:43.127Z,57.51
2019-05-17T14:05:12.574Z,57.49
2019-05-17T14:07:41.957Z,58.18
2019-05-17T14:10:26.119Z,58.69
2019-05-17T14:12:45.041Z,59.83
2019-05-17T14:15:14.499Z,59.45
2019-05-17T14:17:43.777Z,59.99
2019-05-17T14:20:13.167Z,58.43
2019-05-17T14:22:42.450Z,57.56
2019-05-17T14:25:13.359Z,58.65
2019-05-17T14:27:42.664Z,58.85
2019-05-17T14:30:12.295Z,59.33
2019-05-17T14:32:41.691Z,58.87
2019-05-17T14:35:11.296Z,60.59
2019-05-17T14:37:40.726Z,60.03
2019-05-17T14:40:10.117Z,60.62
2019-05-17T14:42:39.425Z,60.00
2019-05-17T14:45:08.950Z,59.39
2019-05-17T14:47:38.393Z,60.89
2019-05-17T14:50:07.866Z,60.40
2019-05-17T14:52:37.155Z,60.67
2019-05-17T14:55:07.907Z,61.60
2019-05-17T14:57:37.255Z,61.62
2019-05-17T15:00:07.645Z,61.01
2019-05-17T15:02:36.910Z,61.67
2019-05-17T15:05:06.881Z,61.45
2019-05-17T15:07:36.248Z,62.26
2019-05-17T15:10:07.445Z,62.14
2019-05-17T15:12:36.727Z,61.69
2019-05-17T15:15:07.687Z,62.79
2019-05-17T15:17:37.066Z,62.93
2019-05-17T15:20:06.849Z,62.27
2019-05-17T15:22:36.207Z,63.38
2019-05-17T15:25:05.858Z,63.75
2019-05-17T15:27:35.154Z,64.33
2019-05-17T15:30:06.343Z,64.01
2019-05-17T15:32:35.627Z,63.74
2019-05-17T15:35:06.684Z,63.60
2019-05-17T15:37:36.033Z,64.43
2019-05-17T15:40:06.814Z,63.66
2019-05-17T15:42:44.030Z,63.76
2019-05-17T15:45:07.454Z,64.07
2019-05-17T15:47:36.734Z,63.71
2019-05-17T15:50:07.172Z,64.53
2019-05-17T15:52:36.535Z,63.47
2019-05-17T15:55:08.783Z,64.41
2019-05-17T15:57:38.085Z,64.98
2019-05-17T16:00:07.889Z,64.27
2019-05-17T16:02:37.242Z,64.34
2019-05-17T16:05:06.805Z,63.95
2019-05-17T16:07:36.090Z,64.10
2019-05-17T16:10:08.855Z,64.09
2019-05-17T16:12:39.315Z,63.56
2019-05-17T16:15:09.029Z,64.39
2019-05-17T16:17:38.315Z,64.25
2019-05-17T16:20:16.546Z,65.13
2019-05-17T16:22:42.107Z,64.05
2019-05-17T16:25:11.630Z,63.81
2019-05-17T16:27:40.916Z,64.76
2019-05-17T16:30:10.594Z,65.18
2019-05-17T16:32:39.889Z,65.36
2019-05-17T16:35:11.023Z,64.83
2019-05-17T16:37:40.344Z,65.17
2019-05-17T16:40:10.115Z,64.59
2019-05-17T16:42:39.416Z,65.41
2019-05-17T16:45:09.166Z,66.42
2019-05-17T16:47:38.467Z,65.38
2019-05-17T16:50:08.354Z,65.12
2019-05-17T16:52:37.642Z,65.10
2019-05-17T16:55:08.204Z,65.46
2019-05-17T16:57:37.757Z,66.75
2019-05-17T17:00:27.930Z,66.11
2019-05-17T17:02:57.384Z,66.08
2019-05-17T17:05:26.688Z,66.16
2019-05-17T17:07:56.242Z,66.68
2019-05-17T17:10:25.621Z,66.24
2019-05-17T17:12:54.941Z,66.50
2019-05-17T17:15:24.305Z,65.99
2019-05-17T17:17:53.675Z,66.14
2019-05-17T17:20:23.445Z,65.63
2019-05-17T17:22:52.977Z,66.24
2019-05-17T17:25:23.557Z,66.12
2019-05-17T17:27:52.842Z,65.71
2019-05-17T17:30:22.221Z,65.83
2019-05-17T17:32:51.537Z,66.41
2019-05-17T17:35:20.834Z,66.26
2019-05-17T17:37:50.181Z,66.10
2019-05-17T17:40:21.132Z,66.09
2019-05-17T17:42:51.188Z,67.29
2019-05-17T17:45:23.405Z,66.85
2019-05-17T17:47:52.714Z,67.12
2019-05-17T17:50:22.152Z,66.34
2019-05-17T17:52:52.060Z,66.23
2019-05-17T17:55:21.551Z,66.73
2019-05-17T17:57:50.996Z,67.10
2019-05-17T18:00:21.122Z,67.34
2019-05-17T18:02:51.616Z,67.37
2019-05-17T18:05:20.987Z,67.29
2019-05-17T18:07:50.540Z,66.86
2019-05-17T18:10:33.551Z,67.47
2019-05-17T18:13:02.140Z,67.53
2019-05-17T18:15:34.469Z,68.69
2019-05-17T18:18:03.875Z,67.30
2019-05-17T18:20:34.116Z,67.07
2019-05-17T18:23:03.420Z,68.27
2019-05-17T18:25:32.756Z,67.71
2019-05-17T18:28:02.083Z,67.71
2019-05-17T18:30:31.445Z,68.18
2019-05-17T18:33:00.793Z,68.48
2019-05-17T18:35:30.115Z,68.23
2019-05-17T18:37:59.423Z,68.12
2019-05-17T18:40:28.718Z,69.09
2019-05-17T18:42:58.039Z,69.33
2019-05-17T18:45:27.415Z,69.21
2019-05-17T18:47:58.637Z,69.40
2019-05-17T18:50:28.358Z,69.00
2019-05-17T18:52:57.846Z,69.12
2019-05-17T18:55:27.127Z,69.03
2019-05-17T18:57:56.532Z,69.54
2019-05-17T19:00:25.934Z,69.70
2019-05-17T19:02:55.263Z,70.16
2019-05-17T19:05:24.589Z,69.35
2019-05-17T19:07:55.024Z,70.19
2019-05-17T19:10:24.662Z,70.36
2019-05-17T19:12:53.976Z,70.68
2019-05-17T19:15:23.471Z,71.20
2019-05-17T19:17:52.810Z,70.95
2019-05-17T19:20:22.322Z,71.23
2019-05-17T19:22:51.765Z,71.33
2019-05-17T19:25:21.325Z,71.29
2019-05-17T19:27:50.691Z,71.72
2019-05-17T19:30:20.166Z,71.87
2019-05-17T19:32:49.456Z,72.07
2019-05-17T19:35:18.961Z,72.33
2019-05-17T19:37:48.261Z,72.45
2019-05-17T19:40:17.639Z,72.40
2019-05-17T19:42:46.944Z,72.39
2019-05-17T19:45:16.847Z,73.46
2019-05-17T19:47:46.189Z,72.70
2019-05-17T19:50:15.761Z,73.27
2019-05-17T19:52:45.086Z,72.77
2019-05-17T19:55:15.710Z,73.11
2019-05-17T19:57:45.037Z,73.73
2019-05-17T20:00:15.357Z,73.89
2019-05-17T20:02:45.100Z,74.44
2019-05-17T20:05:14.623Z,73.51
2019-05-17T20:07:43.968Z,74.14
2019-05-17T20:10:13.488Z,74.81
2019-05-17T20:12:42.865Z,75.03
2019-05-17T20:15:17.938Z,75.01
2019-05-17T20:17:43.763Z,75.39
2019-05-17T20:20:13.557Z,75.51
2019-05-17T20:22:42.878Z,75.61
2019-05-17T20:25:12.720Z,76.12
2019-05-17T20:27:42.026Z,75.34
2019-05-17T20:30:12.056Z,76.32
2019-05-17T20:32:41.356Z,76.09
2019-05-17T20:35:10.913Z,76.24
2019-05-17T20:37:40.286Z,77.34
2019-05-17T20:40:10.130Z,77.61
2019-05-17T20:42:39.728Z,78.53
2019-05-17T20:45:09.949Z,79.17
2019-05-17T20:47:39.335Z,78.86
2019-05-17T20:50:09.367Z,79.39
2019-05-17T20:52:38.730Z,78.78
2019-05-17T20:55:08.276Z,78.53
2019-05-17T20:57:37.606Z,78.93
2019-05-17T21:00:08.750Z,78.95
2019-05-17T21:02:38.163Z,79.29
2019-05-17T21:05:07.704Z,79.18
2019-05-17T21:07:37.058Z,79.22
2019-05-17T21:10:06.524Z,78.99
2019-05-17T21:12:35.835Z,78.72
2019-05-17T21:15:06.848Z,78.66
2019-05-17T21:17:36.132Z,79.12
2019-05-17T21:20:06.784Z,79.25
2019-05-17T21:22:36.241Z,79.08
2019-05-17T21:25:06.381Z,80.20
2019-05-17T21:27:35.752Z,79.90
2019-05-17T21:30:06.905Z,80.41
2019-05-17T21:32:36.252Z,80.56
2019-05-17T21:35:05.907Z,80.32
2019-05-17T21:37:35.800Z,80.92
2019-05-17T21:40:10.687Z,81.10
2019-05-17T21:42:39.967Z,80.98
2019-05-17T21:45:10.440Z,81.77
2019-05-17T21:47:39.733Z,82.25
2019-05-17T21:50:10.551Z,81.65
2019-05-17T21:52:39.834Z,81.72
2019-05-17T21:55:09.524Z,82.52
2019-05-17T21:57:38.807Z,82.78
2019-05-17T22:00:10.918Z,82.52
2019-05-17T22:02:41.814Z,82.95
2019-05-17T22:05:11.473Z,82.92
2019-05-17T22:07:41.853Z,82.94
2019-05-17T22:10:11.433Z,82.99
2019-05-17T22:12:40.819Z,83.03
2019-05-17T22:15:10.292Z,83.62
2019-05-17T22:17:39.595Z,83.83
2019-05-17T22:20:08.946Z,83.77
2019-05-17T22:22:38.257Z,84.51
2019-05-17T22:25:07.729Z,84.21
2019-05-17T22:27:37.064Z,84.76
2019-05-17T22:30:07.321Z,85.15
2019-05-17T22:32:37.599Z,84.80
2019-05-17T22:35:07.059Z,84.97
2019-05-17T22:37:36.358Z,85.33
2019-05-17T22:40:08.881Z,85.01
2019-05-17T22:42:39.513Z,84.94
2019-05-17T22:45:09.478Z,85.09
2019-05-17T22:47:38.773Z,84.75
2019-05-17T22:50:08.482Z,85.29
2019-05-17T22:52:37.809Z,86.15
2019-05-17T22:55:07.498Z,86.33
2019-05-17T22:57:36.821Z,86.51
2019-05-17T23:00:08.004Z,87.36
2019-05-17T23:02:38.206Z,87.53
2019-05-17T23:05:07.414Z,87.40
2019-05-17T23:07:36.721Z,87.32
2019-05-17T23:10:07.651Z,87.30
2019-05-17T23:12:36.929Z,87.01
2019-05-17T23:15:08.026Z,87.10
2019-05-17T23:17:37.389Z,86.77
2019-05-17T23:20:07.253Z,86.17
2019-05-17T23:22:36.533Z,85.84
2019-05-17T23:25:08.730Z,86.56
2019-05-17T23:27:38.009Z,87.23
2019-05-17T23:30:07.586Z,87.84
2019-05-17T23:32:36.855Z,87.27
2019-05-17T23:35:07.320Z,86.96
2019-05-17T23:37:36.575Z,87.28
2019-05-17T23:40:06.759Z,87.48
2019-05-17T23:42:36.030Z,87.24
2019-05-17T23:45:08.453Z,87.12
2019-05-17T23:47:37.735Z,87.40
2019-05-17T23:50:08.879Z,87.35
2019-05-17T23:52:38.150Z,87.68
2019-05-17T23:55:08.489Z,87.40
2019-05-17T23:57:37.769Z,87.52
